createdAt,value
2019-02-03T00:00:00.622Z,1.31
2019-02-03T00:01:00.635Z,1.28
2019-02-03T00:02:00.656Z,1.32
2019-02-03T00:03:00.655Z,1.31
2019-02-03T00:04:00.666Z,1.25
2019-02-03T00:05:00.677Z,1.24
2019-02-03T00:06:00.686Z,1.39
2019-02-03T00:07:03.346Z,1.32
2019-02-03T00:08:00.704Z,1.27
2019-02-03T00:09:00.719Z,1.34
2019-02-03T00:10:00.732Z,1.39
2019-02-03T00:11:00.743Z,1.39
2019-02-03T00:12:00.747Z,1.31
2019-02-03T00:13:00.761Z,1.32
2019-02-03T00:14:00.770Z,1.28
2019-02-03T00:15:00.780Z,1.39
2019-02-03T00:16:00.793Z,1.38
2019-02-03T00:17:00.801Z,1.40
2019-02-03T00:18:00.815Z,1.42
2019-02-03T00:19:00.824Z,1.40
2019-02-03T00:20:00.834Z,1.45
2019-02-03T00:21:00.846Z,1.48
2019-02-03T00:22:00.856Z,1.48
2019-02-03T00:23:00.863Z,1.45
2019-02-03T00:24:01.128Z,1.45
2019-02-03T00:25:00.891Z,1.39
2019-02-03T00:26:00.899Z,1.45
2019-02-03T00:27:00.910Z,1.53
2019-02-03T00:28:00.920Z,1.39
2019-02-03T00:29:00.931Z,1.43
2019-02-03T00:30:00.943Z,1.39
2019-02-03T00:31:00.951Z,1.45
2019-02-03T00:32:00.963Z,1.49
2019-02-03T00:33:00.976Z,1.43
2019-02-03T00:34:00.984Z,1.53
2019-02-03T00:35:00.996Z,1.50
2019-02-03T00:36:01.006Z,1.52
2019-02-03T00:37:01.017Z,1.49
2019-02-03T00:38:01.047Z,1.52
2019-02-03T00:39:01.055Z,1.53
2019-02-03T00:40:01.053Z,1.48
2019-02-03T00:41:01.108Z,1.53
2019-02-03T00:42:01.072Z,1.53
2019-02-03T00:43:01.081Z,1.63
2019-02-03T00:44:01.092Z,1.67
2019-02-03T00:45:01.106Z,1.63
2019-02-03T00:46:01.116Z,1.56
2019-02-03T00:47:01.126Z,1.61
2019-02-03T00:48:01.140Z,1.52
2019-02-03T00:49:01.398Z,1.61
2019-02-03T00:50:01.160Z,1.57
2019-02-03T00:51:01.168Z,1.64
2019-02-03T00:52:01.180Z,1.58
2019-02-03T00:53:01.191Z,1.64
2019-02-03T00:54:01.502Z,1.61
2019-02-03T00:55:01.220Z,1.63
2019-02-03T00:56:01.225Z,1.63
2019-02-03T00:57:01.233Z,1.60
2019-02-03T00:58:01.248Z,1.60
2019-02-03T00:59:01.256Z,1.64
2019-02-03T01:00:01.270Z,1.63
2019-02-03T01:01:01.280Z,1.60
2019-02-03T01:02:01.290Z,1.63
2019-02-03T01:03:01.300Z,1.63
2019-02-03T01:04:01.563Z,1.60
2019-02-03T01:05:01.324Z,1.70
2019-02-03T01:06:01.486Z,1.67
2019-02-03T01:07:01.345Z,1.60
2019-02-03T01:08:01.354Z,1.61
2019-02-03T01:09:01.366Z,1.66
2019-02-03T01:10:01.379Z,1.70
2019-02-03T01:11:01.389Z,1.70
2019-02-03T01:12:01.401Z,1.75
2019-02-03T01:13:01.412Z,1.74
2019-02-03T01:14:01.423Z,1.66
2019-02-03T01:15:01.432Z,1.70
2019-02-03T01:16:01.446Z,1.66
2019-02-03T01:17:01.457Z,1.66
2019-02-03T01:18:01.466Z,1.71
2019-02-03T01:19:01.777Z,1.71
2019-02-03T01:20:01.486Z,1.75
2019-02-03T01:21:01.499Z,1.68
2019-02-03T01:22:01.512Z,1.78
2019-02-03T01:23:01.521Z,1.70
2019-02-03T01:24:01.783Z,1.74
2019-02-03T01:25:01.544Z,1.78
2019-02-03T01:26:01.557Z,1.76
2019-02-03T01:27:01.566Z,1.71
2019-02-03T01:28:01.577Z,1.75
2019-02-03T01:29:01.671Z,1.75
2019-02-03T01:30:01.691Z,1.75
2019-02-03T01:31:01.670Z,1.78
2019-02-03T01:32:01.671Z,1.76
2019-02-03T01:33:01.681Z,1.74
2019-02-03T01:34:01.676Z,1.82
2019-02-03T01:35:01.737Z,1.76
2019-02-03T01:36:01.766Z,1.75
2019-02-03T01:37:01.742Z,1.84
2019-02-03T01:38:01.749Z,1.81
2019-02-03T01:39:02.024Z,1.82
2019-02-03T01:40:01.725Z,1.81
2019-02-03T01:41:01.730Z,1.78
2019-02-03T01:42:01.731Z,1.78
2019-02-03T01:43:01.744Z,1.85
2019-02-03T01:44:02.004Z,1.78
2019-02-03T01:45:01.767Z,1.84
2019-02-03T01:46:01.784Z,1.79
2019-02-03T01:47:01.788Z,1.78
2019-02-03T01:48:01.799Z,1.74
2019-02-03T01:49:01.811Z,1.76
2019-02-03T01:50:01.826Z,1.75
2019-02-03T01:51:01.832Z,1.78
2019-02-03T01:52:01.843Z,1.76
2019-02-03T01:53:01.855Z,1.78
2019-02-03T01:54:01.866Z,1.82
2019-02-03T01:55:01.875Z,1.81
2019-02-03T01:56:01.888Z,1.82
2019-02-03T01:57:01.902Z,1.74
2019-02-03T01:58:01.910Z,1.81
2019-02-03T01:59:01.919Z,1.71
2019-02-03T02:00:01.931Z,1.71
2019-02-03T02:01:01.944Z,1.75
2019-02-03T02:02:01.954Z,1.82
2019-02-03T02:03:01.963Z,1.82
2019-02-03T02:04:02.225Z,1.76
2019-02-03T02:05:01.988Z,1.74
2019-02-03T02:06:02.000Z,1.81
2019-02-03T02:07:02.008Z,1.78
2019-02-03T02:08:02.021Z,1.75
2019-02-03T02:09:02.087Z,1.76
2019-02-03T02:10:02.041Z,1.76
2019-02-03T02:11:02.054Z,1.74
2019-02-03T02:12:02.063Z,1.79
2019-02-03T02:13:02.074Z,1.67
2019-02-03T02:14:02.087Z,1.78
2019-02-03T02:15:02.097Z,1.71
2019-02-03T02:16:02.105Z,1.75
2019-02-03T02:17:02.117Z,1.78
2019-02-03T02:18:02.128Z,1.66
2019-02-03T02:19:02.391Z,1.76
2019-02-03T02:20:02.151Z,1.68
2019-02-03T02:21:02.163Z,1.64
2019-02-03T02:22:02.174Z,1.74
2019-02-03T02:23:02.181Z,1.81
2019-02-03T02:24:02.194Z,1.71
2019-02-03T02:25:02.208Z,1.76
2019-02-03T02:26:02.216Z,1.71
2019-02-03T02:27:02.233Z,1.79
2019-02-03T02:28:02.240Z,1.82
2019-02-03T02:29:02.250Z,1.71
2019-02-03T02:30:02.265Z,1.63
2019-02-03T02:31:02.272Z,1.67
2019-02-03T02:32:02.283Z,1.66
2019-02-03T02:33:02.296Z,1.66
2019-02-03T02:34:02.306Z,1.64
2019-02-03T02:35:02.325Z,1.70
2019-02-03T02:36:02.324Z,1.67
2019-02-03T02:37:02.341Z,1.66
2019-02-03T02:38:07.158Z,1.61
2019-02-03T02:39:02.358Z,1.63
2019-02-03T02:40:12.312Z,1.68
2019-02-03T02:41:02.381Z,1.64
2019-02-03T02:42:02.395Z,1.74
2019-02-03T02:43:02.405Z,1.66
2019-02-03T02:44:02.734Z,1.68
2019-02-03T02:45:02.431Z,1.68
2019-02-03T02:46:02.446Z,1.79
2019-02-03T02:47:02.451Z,1.68
2019-02-03T02:48:02.459Z,1.71
2019-02-03T02:49:02.468Z,1.74
2019-02-03T02:50:02.479Z,1.68
2019-02-03T02:51:02.492Z,1.74
2019-02-03T02:52:02.640Z,1.76
2019-02-03T02:53:02.517Z,1.71
2019-02-03T02:54:02.529Z,1.75
2019-02-03T02:55:02.534Z,1.75
2019-02-03T02:56:02.546Z,1.71
2019-02-03T02:57:02.558Z,1.66
2019-02-03T02:58:02.565Z,1.70
2019-02-03T02:59:02.877Z,1.74
2019-02-03T03:00:02.590Z,1.71
2019-02-03T03:01:02.601Z,1.68
2019-02-03T03:02:02.611Z,1.74
2019-02-03T03:03:02.739Z,1.67
2019-02-03T03:04:02.881Z,1.68
2019-02-03T03:05:02.648Z,1.71
2019-02-03T03:06:02.654Z,1.68
2019-02-03T03:07:02.668Z,1.67
2019-02-03T03:08:02.682Z,1.64
2019-02-03T03:09:02.687Z,1.68
2019-02-03T03:10:02.697Z,1.74
2019-02-03T03:11:02.711Z,1.71
2019-02-03T03:12:02.719Z,1.68
2019-02-03T03:13:02.732Z,1.76
2019-02-03T03:14:02.740Z,1.68
2019-02-03T03:15:02.749Z,1.71
2019-02-03T03:16:02.881Z,1.68
2019-02-03T03:17:02.774Z,1.71
2019-02-03T03:18:02.787Z,1.66
2019-02-03T03:19:03.095Z,1.70
2019-02-03T03:20:02.807Z,1.71
2019-02-03T03:21:02.816Z,1.68
2019-02-03T03:22:02.830Z,1.74
2019-02-03T03:23:02.839Z,1.71
2019-02-03T03:24:02.849Z,1.71
2019-02-03T03:25:02.858Z,1.74
2019-02-03T03:26:02.871Z,1.64
2019-02-03T03:27:02.881Z,1.71
2019-02-03T03:28:02.893Z,1.79
2019-02-03T03:29:03.153Z,1.74
2019-02-03T03:30:02.918Z,1.78
2019-02-03T03:31:02.955Z,1.71
2019-02-03T03:32:02.942Z,1.74
2019-02-03T03:33:02.950Z,1.81
2019-02-03T03:34:02.958Z,1.75
2019-02-03T03:35:02.968Z,1.76
2019-02-03T03:36:03.122Z,1.81
2019-02-03T03:37:02.989Z,1.75
2019-02-03T03:38:03.006Z,1.78
2019-02-03T03:39:03.010Z,1.75
2019-02-03T03:40:03.029Z,1.78
2019-02-03T03:41:03.034Z,1.75
2019-02-03T03:42:03.044Z,1.81
2019-02-03T03:43:03.054Z,1.86
2019-02-03T03:44:03.318Z,1.78
2019-02-03T03:45:03.077Z,1.79
2019-02-03T03:46:06.323Z,1.78
2019-02-03T03:47:03.096Z,1.76
2019-02-03T03:48:03.115Z,1.84
2019-02-03T03:49:03.122Z,1.74
2019-02-03T03:50:03.138Z,1.75
2019-02-03T03:51:03.145Z,1.82
2019-02-03T03:52:03.165Z,1.82
2019-02-03T03:53:03.163Z,1.81
2019-02-03T03:54:03.176Z,1.78
2019-02-03T03:55:03.188Z,1.68
2019-02-03T03:56:03.193Z,1.85
2019-02-03T03:57:03.207Z,1.84
2019-02-03T03:58:03.219Z,1.85
2019-02-03T03:59:03.231Z,1.93
2019-02-03T04:00:03.241Z,1.76
2019-02-03T04:01:03.254Z,1.82
2019-02-03T04:02:03.265Z,1.81
2019-02-03T04:03:03.276Z,1.92
2019-02-03T04:04:03.302Z,1.84
2019-02-03T04:05:03.301Z,1.86
2019-02-03T04:06:03.310Z,1.84
2019-02-03T04:07:03.317Z,1.92
2019-02-03T04:08:03.332Z,1.81
2019-02-03T04:09:03.594Z,1.89
2019-02-03T04:10:03.351Z,1.89
2019-02-03T04:11:03.421Z,1.79
2019-02-03T04:12:03.379Z,1.79
2019-02-03T04:13:03.484Z,1.88
2019-02-03T04:14:03.496Z,1.88
2019-02-03T04:15:03.531Z,1.84
2019-02-03T04:16:03.468Z,1.81
2019-02-03T04:17:03.485Z,1.84
2019-02-03T04:18:03.466Z,1.88
2019-02-03T04:19:03.787Z,1.82
2019-02-03T04:20:03.523Z,1.85
2019-02-03T04:21:03.522Z,1.89
2019-02-03T04:22:03.545Z,1.84
2019-02-03T04:23:03.529Z,1.84
2019-02-03T04:24:03.820Z,1.79
2019-02-03T04:25:03.526Z,1.79
2019-02-03T04:26:03.530Z,1.86
2019-02-03T04:27:03.538Z,1.84
2019-02-03T04:28:03.551Z,1.88
2019-02-03T04:29:03.561Z,1.95
2019-02-03T04:30:03.570Z,1.79
2019-02-03T04:31:03.582Z,1.82
2019-02-03T04:32:03.596Z,1.88
2019-02-03T04:33:03.606Z,1.79
2019-02-03T04:34:03.623Z,1.82
2019-02-03T04:35:03.625Z,1.84
2019-02-03T04:36:03.638Z,1.89
2019-02-03T04:37:03.648Z,1.93
2019-02-03T04:38:03.660Z,1.92
2019-02-03T04:39:03.672Z,1.81
2019-02-03T04:40:03.681Z,1.79
2019-02-03T04:41:03.691Z,1.81
2019-02-03T04:42:03.707Z,1.82
2019-02-03T04:43:03.713Z,1.88
2019-02-03T04:44:03.726Z,1.85
2019-02-03T04:45:03.736Z,1.84
2019-02-03T04:46:03.750Z,1.85
2019-02-03T04:47:03.846Z,1.86
2019-02-03T04:48:03.774Z,1.84
2019-02-03T04:49:03.812Z,1.84
2019-02-03T04:50:03.798Z,1.89
2019-02-03T04:51:03.803Z,1.85
2019-02-03T04:52:03.812Z,1.92
2019-02-03T04:53:03.823Z,1.88
2019-02-03T04:54:03.834Z,1.89
2019-02-03T04:55:03.844Z,1.85
2019-02-03T04:56:03.856Z,1.79
2019-02-03T04:57:03.869Z,1.79
2019-02-03T04:58:03.887Z,1.89
2019-02-03T04:59:03.891Z,1.82
2019-02-03T05:00:03.901Z,1.89
2019-02-03T05:01:03.910Z,1.93
2019-02-03T05:02:03.922Z,1.86
2019-02-03T05:03:03.935Z,1.82
2019-02-03T05:04:03.943Z,1.78
2019-02-03T05:05:03.956Z,1.85
2019-02-03T05:06:03.967Z,1.93
2019-02-03T05:07:03.977Z,1.85
2019-02-03T05:08:03.986Z,1.92
2019-02-03T05:09:11.330Z,1.82
2019-02-03T05:10:04.010Z,1.97
2019-02-03T05:11:04.021Z,1.84
2019-02-03T05:12:04.039Z,1.89
2019-02-03T05:13:04.044Z,1.82
2019-02-03T05:14:04.054Z,1.92
2019-02-03T05:15:04.067Z,1.89
2019-02-03T05:16:04.076Z,1.86
2019-02-03T05:17:04.085Z,1.88
2019-02-03T05:18:04.097Z,1.92
2019-02-03T05:19:04.107Z,1.89
2019-02-03T05:20:04.118Z,1.93
2019-02-03T05:21:04.133Z,1.81
2019-02-03T05:22:04.146Z,1.93
2019-02-03T05:23:04.155Z,1.85
2019-02-03T05:24:04.165Z,1.95
2019-02-03T05:25:04.175Z,1.82
2019-02-03T05:26:04.206Z,1.82
2019-02-03T05:27:04.197Z,1.84
2019-02-03T05:28:04.209Z,1.82
2019-02-03T05:29:04.469Z,1.93
2019-02-03T05:30:04.232Z,1.79
2019-02-03T05:31:04.248Z,1.85
2019-02-03T05:32:04.252Z,1.84
2019-02-03T05:33:04.262Z,1.82
2019-02-03T05:34:04.279Z,1.88
2019-02-03T05:35:04.284Z,1.89
2019-02-03T05:36:04.295Z,1.79
2019-02-03T05:37:04.306Z,1.81
2019-02-03T05:38:04.346Z,1.84
2019-02-03T05:39:04.330Z,1.92
2019-02-03T05:40:04.340Z,1.93
2019-02-03T05:41:04.350Z,1.88
2019-02-03T05:42:04.363Z,1.81
2019-02-03T05:43:04.372Z,1.95
2019-02-03T05:44:04.383Z,1.89
2019-02-03T05:45:04.396Z,1.92
2019-02-03T05:46:04.409Z,1.88
2019-02-03T05:47:04.422Z,1.93
2019-02-03T05:48:04.429Z,1.95
2019-02-03T05:49:04.453Z,1.84
2019-02-03T05:50:04.451Z,1.93
2019-02-03T05:51:04.463Z,1.92
2019-02-03T05:52:04.473Z,1.89
2019-02-03T05:53:04.482Z,1.93
2019-02-03T05:54:04.497Z,1.89
2019-02-03T05:55:04.506Z,1.92
2019-02-03T05:56:04.515Z,1.95
2019-02-03T05:57:04.527Z,1.93
2019-02-03T05:58:04.540Z,1.81
2019-02-03T05:59:04.800Z,1.95
2019-02-03T06:00:04.564Z,1.81
2019-02-03T06:01:04.573Z,1.98
2019-02-03T06:02:04.583Z,1.89
2019-02-03T06:03:04.596Z,1.81
2019-02-03T06:04:04.905Z,1.89
2019-02-03T06:05:04.621Z,1.89
2019-02-03T06:06:04.627Z,1.85
2019-02-03T06:07:04.640Z,1.95
2019-02-03T06:08:04.650Z,1.84
2019-02-03T06:09:04.661Z,1.89
2019-02-03T06:10:04.678Z,1.98
2019-02-03T06:11:04.683Z,1.89
2019-02-03T06:12:04.694Z,1.82
2019-02-03T06:13:04.708Z,1.82
2019-02-03T06:14:04.717Z,1.79
2019-02-03T06:15:04.727Z,1.92
2019-02-03T06:16:04.738Z,1.89
2019-02-03T06:17:04.749Z,1.82
2019-02-03T06:18:04.824Z,1.93
2019-02-03T06:19:04.772Z,1.97
2019-02-03T06:20:04.784Z,1.93
2019-02-03T06:21:04.796Z,1.93
2019-02-03T06:22:04.806Z,1.85
2019-02-03T06:23:04.817Z,1.89
2019-02-03T06:24:05.125Z,1.88
2019-02-03T06:25:04.841Z,1.89
2019-02-03T06:26:04.849Z,1.86
2019-02-03T06:27:04.860Z,1.88
2019-02-03T06:28:04.870Z,1.85
2019-02-03T06:29:05.132Z,1.93
2019-02-03T06:30:04.894Z,1.85
2019-02-03T06:31:04.903Z,1.88
2019-02-03T06:32:04.918Z,1.89
2019-02-03T06:33:04.925Z,1.92
2019-02-03T06:34:04.937Z,1.95
2019-02-03T06:35:04.948Z,1.89
2019-02-03T06:36:04.959Z,1.88
2019-02-03T06:37:04.974Z,1.84
2019-02-03T06:38:04.982Z,1.84
2019-02-03T06:39:05.325Z,1.93
2019-02-03T06:40:05.001Z,1.97
2019-02-03T06:41:05.014Z,1.95
2019-02-03T06:42:05.024Z,1.95
2019-02-03T06:43:05.036Z,1.95
2019-02-03T06:44:05.047Z,1.93
2019-02-03T06:45:05.061Z,1.98
2019-02-03T06:46:05.072Z,1.97
2019-02-03T06:47:05.081Z,1.92
2019-02-03T06:48:05.094Z,1.81
2019-02-03T06:49:05.104Z,1.95
2019-02-03T06:50:05.116Z,1.93
2019-02-03T06:51:05.125Z,1.93
2019-02-03T06:52:05.136Z,1.97
2019-02-03T06:53:05.146Z,1.95
2019-02-03T06:54:05.158Z,1.95
2019-02-03T06:55:05.170Z,1.93
2019-02-03T06:56:05.198Z,1.89
2019-02-03T06:57:05.267Z,1.89
2019-02-03T06:58:05.280Z,1.93
2019-02-03T06:59:05.466Z,1.92
2019-02-03T07:00:05.258Z,1.92
2019-02-03T07:01:05.271Z,1.84
2019-02-03T07:02:05.324Z,1.89
2019-02-03T07:03:05.328Z,1.92
2019-02-03T07:04:05.336Z,1.93
2019-02-03T07:05:05.326Z,1.95
2019-02-03T07:06:05.326Z,1.89
2019-02-03T07:07:05.320Z,1.89
2019-02-03T07:08:05.333Z,1.78
2019-02-03T07:09:05.326Z,1.97
2019-02-03T07:10:05.335Z,1.92
2019-02-03T07:11:05.348Z,1.93
2019-02-03T07:12:05.357Z,1.92
2019-02-03T07:13:05.371Z,1.92
2019-02-03T07:14:05.378Z,2.00
2019-02-03T07:15:05.391Z,1.93
2019-02-03T07:16:05.402Z,1.92
2019-02-03T07:17:05.418Z,1.92
2019-02-03T07:18:05.424Z,1.92
2019-02-03T07:19:05.433Z,1.85
2019-02-03T07:20:05.446Z,1.93
2019-02-03T07:21:05.455Z,1.79
2019-02-03T07:22:05.468Z,1.98
2019-02-03T07:23:05.574Z,1.88
2019-02-03T07:24:05.740Z,1.92
2019-02-03T07:25:05.505Z,1.93
2019-02-03T07:26:05.511Z,1.93
2019-02-03T07:27:05.523Z,1.92
2019-02-03T07:28:05.535Z,1.93
2019-02-03T07:29:05.544Z,1.89
2019-02-03T07:30:05.558Z,1.93
2019-02-03T07:31:05.566Z,1.88
2019-02-03T07:32:05.578Z,1.89
2019-02-03T07:33:05.589Z,1.89
2019-02-03T07:34:05.600Z,2.00
2019-02-03T07:35:05.610Z,1.93
2019-02-03T07:36:05.620Z,2.01
2019-02-03T07:37:05.636Z,2.01
2019-02-03T07:38:05.646Z,2.05
2019-02-03T07:39:05.655Z,2.03
2019-02-03T07:40:12.458Z,1.95
2019-02-03T07:41:05.678Z,2.03
2019-02-03T07:42:05.689Z,2.01
2019-02-03T07:43:05.701Z,1.98
2019-02-03T07:44:05.711Z,2.01
2019-02-03T07:45:05.723Z,2.03
2019-02-03T07:46:05.736Z,1.95
2019-02-03T07:47:05.744Z,1.86
2019-02-03T07:48:05.754Z,2.01
2019-02-03T07:49:06.016Z,2.00
2019-02-03T07:50:05.775Z,1.92
2019-02-03T07:51:05.791Z,1.88
2019-02-03T07:52:05.799Z,1.98
2019-02-03T07:53:08.532Z,2.01
2019-02-03T07:54:08.473Z,2.03
2019-02-03T07:55:05.831Z,1.97
2019-02-03T07:56:05.845Z,1.95
2019-02-03T07:57:05.856Z,1.97
2019-02-03T07:58:05.867Z,1.98
2019-02-03T07:59:06.176Z,2.00
2019-02-03T08:00:05.886Z,2.00
2019-02-03T08:01:05.900Z,2.00
2019-02-03T08:02:05.910Z,1.97
2019-02-03T08:03:05.923Z,1.95
2019-02-03T08:04:05.939Z,2.00
2019-02-03T08:05:05.944Z,2.00
2019-02-03T08:06:05.955Z,1.98
2019-02-03T08:07:05.972Z,1.95
2019-02-03T08:08:05.976Z,1.97
2019-02-03T08:09:06.237Z,2.01
2019-02-03T08:10:05.999Z,2.01
2019-02-03T08:11:06.009Z,2.03
2019-02-03T08:12:06.019Z,1.93
2019-02-03T08:13:06.033Z,1.97
2019-02-03T08:14:06.042Z,1.89
2019-02-03T08:15:06.054Z,1.89
2019-02-03T08:16:06.064Z,1.98
2019-02-03T08:17:06.079Z,2.00
2019-02-03T08:18:06.087Z,2.00
2019-02-03T08:19:06.095Z,1.98
2019-02-03T08:20:06.108Z,2.00
2019-02-03T08:21:06.120Z,1.85
2019-02-03T08:22:06.131Z,2.01
2019-02-03T08:23:06.142Z,1.95
2019-02-03T08:24:06.453Z,1.97
2019-02-03T08:25:06.164Z,1.97
2019-02-03T08:26:06.190Z,1.93
2019-02-03T08:27:06.260Z,1.93
2019-02-03T08:28:06.199Z,2.03
2019-02-03T08:29:06.207Z,2.03
2019-02-03T08:30:06.221Z,2.04
2019-02-03T08:31:06.230Z,2.08
2019-02-03T08:32:06.237Z,1.98
2019-02-03T08:33:06.250Z,1.98
2019-02-03T08:34:06.262Z,1.95
2019-02-03T08:35:06.276Z,1.98
2019-02-03T08:36:06.284Z,2.07
2019-02-03T08:37:06.296Z,1.98
2019-02-03T08:38:06.305Z,1.98
2019-02-03T08:39:06.315Z,1.97
2019-02-03T08:40:06.327Z,1.86
2019-02-03T08:41:06.338Z,1.93
2019-02-03T08:42:06.347Z,1.98
2019-02-03T08:43:06.361Z,2.04
2019-02-03T08:44:06.375Z,2.00
2019-02-03T08:45:06.379Z,1.88
2019-02-03T08:46:06.391Z,1.98
2019-02-03T08:47:06.426Z,1.95
2019-02-03T08:48:06.415Z,2.00
2019-02-03T08:49:06.726Z,2.00
2019-02-03T08:50:06.435Z,1.97
2019-02-03T08:51:06.566Z,2.00
2019-02-03T08:52:06.456Z,1.97
2019-02-03T08:53:06.468Z,2.01
2019-02-03T08:54:06.480Z,2.04
2019-02-03T08:55:06.490Z,1.89
2019-02-03T08:56:06.499Z,1.92
2019-02-03T08:57:06.512Z,1.97
2019-02-03T08:58:06.525Z,2.01
2019-02-03T08:59:06.781Z,1.92
2019-02-03T09:00:06.542Z,1.93
2019-02-03T09:01:06.555Z,2.01
2019-02-03T09:02:06.564Z,2.05
2019-02-03T09:03:08.508Z,1.98
2019-02-03T09:04:06.586Z,2.00
2019-02-03T09:05:06.595Z,1.97
2019-02-03T09:06:06.650Z,1.98
2019-02-03T09:07:06.616Z,1.95
2019-02-03T09:08:06.637Z,1.97
2019-02-03T09:09:06.642Z,2.01
2019-02-03T09:10:06.653Z,2.03
2019-02-03T09:11:06.661Z,1.98
2019-02-03T09:12:06.672Z,1.92
2019-02-03T09:13:06.684Z,2.00
2019-02-03T09:14:06.698Z,1.98
2019-02-03T09:15:06.708Z,1.98
2019-02-03T09:16:06.715Z,1.93
2019-02-03T09:17:06.729Z,1.97
2019-02-03T09:18:06.763Z,1.85
2019-02-03T09:19:06.745Z,1.97
2019-02-03T09:20:06.759Z,1.89
2019-02-03T09:21:06.772Z,1.95
2019-02-03T09:22:06.780Z,1.92
2019-02-03T09:23:06.792Z,1.98
2019-02-03T09:24:06.803Z,1.97
2019-02-03T09:25:06.814Z,1.95
2019-02-03T09:26:08.668Z,2.05
2019-02-03T09:27:06.834Z,2.00
2019-02-03T09:28:06.848Z,1.98
2019-02-03T09:29:06.856Z,1.93
2019-02-03T09:30:06.869Z,2.04
2019-02-03T09:31:06.878Z,2.00
2019-02-03T09:32:06.889Z,2.01
2019-02-03T09:33:06.904Z,2.00
2019-02-03T09:34:06.911Z,2.05
2019-02-03T09:35:06.922Z,2.07
2019-02-03T09:36:06.934Z,2.15
2019-02-03T09:37:06.945Z,2.08
2019-02-03T09:38:06.958Z,2.14
2019-02-03T09:39:06.966Z,2.08
2019-02-03T09:40:06.989Z,2.08
2019-02-03T09:41:07.062Z,2.04
2019-02-03T09:42:07.063Z,2.15
2019-02-03T09:43:07.092Z,2.05
2019-02-03T09:44:07.063Z,2.15
2019-02-03T09:45:07.066Z,2.16
2019-02-03T09:46:07.120Z,2.22
2019-02-03T09:47:07.121Z,2.15
2019-02-03T09:48:07.140Z,2.12
2019-02-03T09:49:07.117Z,2.25
2019-02-03T09:50:07.117Z,2.23
2019-02-03T09:51:07.117Z,2.15
2019-02-03T09:52:07.118Z,2.21
2019-02-03T09:53:07.144Z,2.16
2019-02-03T09:54:07.136Z,2.23
2019-02-03T09:55:07.146Z,2.22
2019-02-03T09:56:07.156Z,2.19
2019-02-03T09:57:07.170Z,2.19
2019-02-03T09:58:07.178Z,2.25
2019-02-03T09:59:07.191Z,2.23
2019-02-03T10:00:07.203Z,2.21
2019-02-03T10:01:07.211Z,2.16
2019-02-03T10:02:07.223Z,2.19
2019-02-03T10:03:07.235Z,2.28
2019-02-03T10:04:07.248Z,2.25
2019-02-03T10:05:07.260Z,2.32
2019-02-03T10:06:07.268Z,2.34
2019-02-03T10:07:07.279Z,2.33
2019-02-03T10:08:07.293Z,2.28
2019-02-03T10:09:07.304Z,2.34
2019-02-03T10:10:07.315Z,2.33
2019-02-03T10:11:12.116Z,2.32
2019-02-03T10:12:07.336Z,2.32
2019-02-03T10:13:07.346Z,2.33
2019-02-03T10:14:07.358Z,2.36
2019-02-03T10:15:07.369Z,2.28
2019-02-03T10:16:07.381Z,2.28
2019-02-03T10:17:07.524Z,2.37
2019-02-03T10:18:07.405Z,2.37
2019-02-03T10:19:07.416Z,2.30
2019-02-03T10:20:07.426Z,2.26
2019-02-03T10:21:07.439Z,2.33
2019-02-03T10:22:07.451Z,2.30
2019-02-03T10:23:07.460Z,2.37
2019-02-03T10:24:07.474Z,2.37
2019-02-03T10:25:07.483Z,2.37
2019-02-03T10:26:07.494Z,2.37
2019-02-03T10:27:07.506Z,2.37
2019-02-03T10:28:07.521Z,2.25
2019-02-03T10:29:07.529Z,2.39
2019-02-03T10:30:07.542Z,2.39
2019-02-03T10:31:07.551Z,2.37
2019-02-03T10:32:07.562Z,2.43
2019-02-03T10:33:07.575Z,2.33
2019-02-03T10:34:07.605Z,2.34
2019-02-03T10:35:07.595Z,2.39
2019-02-03T10:36:07.610Z,2.34
2019-02-03T10:37:07.621Z,2.40
2019-02-03T10:38:07.632Z,2.32
2019-02-03T10:39:07.895Z,2.40
2019-02-03T10:40:07.659Z,2.39
2019-02-03T10:41:07.733Z,2.32
2019-02-03T10:42:07.680Z,2.39
2019-02-03T10:43:07.692Z,2.39
2019-02-03T10:44:07.700Z,2.32
2019-02-03T10:45:07.711Z,2.39
2019-02-03T10:46:07.725Z,2.41
2019-02-03T10:47:07.736Z,2.36
2019-02-03T10:48:07.745Z,2.36
2019-02-03T10:49:07.757Z,2.37
2019-02-03T10:50:07.770Z,2.39
2019-02-03T10:51:07.781Z,2.43
2019-02-03T10:52:07.789Z,2.43
2019-02-03T10:53:07.802Z,2.36
2019-02-03T10:54:07.816Z,2.37
2019-02-03T10:55:07.824Z,2.23
2019-02-03T10:56:07.837Z,2.40
2019-02-03T10:57:07.850Z,2.39
2019-02-03T10:58:07.859Z,2.39
2019-02-03T10:59:08.125Z,2.36
2019-02-03T11:00:17.989Z,2.40
2019-02-03T11:01:07.893Z,2.37
2019-02-03T11:02:07.905Z,2.37
2019-02-03T11:03:07.916Z,2.33
2019-02-03T11:04:07.926Z,2.39
2019-02-03T11:05:07.937Z,2.37
2019-02-03T11:06:07.950Z,2.40
2019-02-03T11:07:07.960Z,2.28
2019-02-03T11:08:07.972Z,2.26
2019-02-03T11:09:07.983Z,2.44
2019-02-03T11:10:07.994Z,2.44
2019-02-03T11:11:08.006Z,2.40
2019-02-03T11:12:08.016Z,2.43
2019-02-03T11:13:08.029Z,2.37
2019-02-03T11:14:08.040Z,2.39
2019-02-03T11:15:08.051Z,2.34
2019-02-03T11:16:08.066Z,2.40
2019-02-03T11:17:08.074Z,2.55
2019-02-03T11:18:08.089Z,2.47
2019-02-03T11:19:08.345Z,2.47
2019-02-03T11:20:08.110Z,2.50
2019-02-03T11:21:08.121Z,2.52
2019-02-03T11:22:08.135Z,2.54
2019-02-03T11:23:08.147Z,2.65
2019-02-03T11:24:08.154Z,2.65
2019-02-03T11:25:08.166Z,2.59
2019-02-03T11:26:08.177Z,2.62
2019-02-03T11:27:08.190Z,2.64
2019-02-03T11:28:08.203Z,2.65
2019-02-03T11:29:08.216Z,2.72
2019-02-03T11:30:08.224Z,2.69
2019-02-03T11:31:08.236Z,2.72
2019-02-03T11:32:08.250Z,2.70
2019-02-03T11:33:09.856Z,2.73
2019-02-03T11:34:08.271Z,2.70
2019-02-03T11:35:08.283Z,2.68
2019-02-03T11:36:08.295Z,2.72
2019-02-03T11:37:08.308Z,2.69
2019-02-03T11:38:08.321Z,2.70
2019-02-03T11:39:08.332Z,2.69
2019-02-03T11:40:08.342Z,2.64
2019-02-03T11:41:08.353Z,2.70
2019-02-03T11:42:08.368Z,2.73
2019-02-03T11:43:08.375Z,2.73
2019-02-03T11:44:08.388Z,2.75
2019-02-03T11:45:08.400Z,2.76
2019-02-03T11:46:08.412Z,2.80
2019-02-03T11:47:08.426Z,2.79
2019-02-03T11:48:08.437Z,2.80
2019-02-03T11:49:08.448Z,2.83
2019-02-03T11:50:08.460Z,2.88
2019-02-03T11:51:08.471Z,2.90
2019-02-03T11:52:08.484Z,2.87
2019-02-03T11:53:08.499Z,2.85
2019-02-03T11:54:08.506Z,2.94
2019-02-03T11:55:08.519Z,2.94
2019-02-03T11:56:08.530Z,2.90
2019-02-03T11:57:08.542Z,2.90
2019-02-03T11:58:08.552Z,3.01
2019-02-03T11:59:08.890Z,2.94
2019-02-03T12:00:08.576Z,2.94
2019-02-03T12:01:08.591Z,2.93
2019-02-03T12:02:08.602Z,2.85
2019-02-03T12:03:08.614Z,2.85
2019-02-03T12:04:08.626Z,2.85
2019-02-03T12:05:08.638Z,2.97
2019-02-03T12:06:08.650Z,2.87
2019-02-03T12:07:08.662Z,2.93
2019-02-03T12:08:08.673Z,2.90
2019-02-03T12:09:08.686Z,2.91
2019-02-03T12:10:08.699Z,2.98
2019-02-03T12:11:08.708Z,2.97
2019-02-03T12:12:08.721Z,2.98
2019-02-03T12:13:08.734Z,2.93
2019-02-03T12:14:08.744Z,2.88
2019-02-03T12:15:08.907Z,2.97
2019-02-03T12:16:08.787Z,2.98
2019-02-03T12:17:08.808Z,2.94
2019-02-03T12:18:08.876Z,2.85
2019-02-03T12:19:08.856Z,2.94
2019-02-03T12:20:08.861Z,2.83
2019-02-03T12:21:08.866Z,2.88
2019-02-03T12:22:08.924Z,2.95
2019-02-03T12:23:08.932Z,2.88
2019-02-03T12:24:08.923Z,2.97
2019-02-03T12:25:08.922Z,2.91
2019-02-03T12:26:08.926Z,3.00
2019-02-03T12:27:08.918Z,2.91
2019-02-03T12:28:08.934Z,2.91
2019-02-03T12:29:08.928Z,2.97
2019-02-03T12:30:08.940Z,2.94
2019-02-03T12:31:08.949Z,3.00
2019-02-03T12:32:08.965Z,3.01
2019-02-03T12:33:08.974Z,2.94
2019-02-03T12:34:08.988Z,3.01
2019-02-03T12:35:08.997Z,3.01
2019-02-03T12:36:09.114Z,2.98
2019-02-03T12:37:09.023Z,3.00
2019-02-03T12:38:09.036Z,2.98
2019-02-03T12:39:09.046Z,2.90
2019-02-03T12:40:09.059Z,2.97
2019-02-03T12:41:09.070Z,3.00
2019-02-03T12:42:13.287Z,2.94
2019-02-03T12:43:09.092Z,2.95
2019-02-03T12:44:09.128Z,2.93
2019-02-03T12:45:09.118Z,2.97
2019-02-03T12:46:09.129Z,3.01
2019-02-03T12:47:09.143Z,2.88
2019-02-03T12:48:09.156Z,2.93
2019-02-03T12:49:09.166Z,2.95
2019-02-03T12:50:09.178Z,2.95
2019-02-03T12:51:09.190Z,3.00
2019-02-03T12:52:09.205Z,2.91
2019-02-03T12:53:09.214Z,3.06
2019-02-03T12:54:09.225Z,2.90
2019-02-03T12:55:09.237Z,2.98
2019-02-03T12:56:09.249Z,2.94
2019-02-03T12:57:09.261Z,2.88
2019-02-03T12:58:09.273Z,2.83
2019-02-03T12:59:09.287Z,2.85
2019-02-03T13:00:09.297Z,2.82
2019-02-03T13:01:09.309Z,2.87
2019-02-03T13:02:09.321Z,2.90
2019-02-03T13:03:09.331Z,2.75
2019-02-03T13:04:09.347Z,2.79
2019-02-03T13:05:09.355Z,2.72
2019-02-03T13:06:09.367Z,2.75
2019-02-03T13:07:09.376Z,2.77
2019-02-03T13:08:09.390Z,2.75
2019-02-03T13:09:09.402Z,2.72
2019-02-03T13:10:16.353Z,2.69
2019-02-03T13:11:09.423Z,2.68
2019-02-03T13:12:09.435Z,2.76
2019-02-03T13:13:09.452Z,2.64
2019-02-03T13:14:09.458Z,2.61
2019-02-03T13:15:09.469Z,2.64
2019-02-03T13:16:09.482Z,2.61
2019-02-03T13:17:09.492Z,2.59
2019-02-03T13:18:09.504Z,2.64